sensor_id;sensor_type;location;lat;lon;timestamp;pressure;altitude;pressure_sealevel;temperature;humidity
73594;BME280;76988;53.404;23.496;2024-03-08T00:02:15;100404.25;;;1.07;66.77
73594;BME280;76988;53.404;23.496;2024-03-08T00:04:42;100414.31;;;1.13;67.70
73594;BME280;76988;53.404;23.496;2024-03-08T00:07:08;100399.66;;;1.09;67.08
73594;BME280;76988;53.404;23.496;2024-03-08T00:09:34;100404.94;;;1.09;67.56
73594;BME280;76988;53.404;23.496;2024-03-08T00:12:00;100405.44;;;1.03;66.69
73594;BME280;76988;53.404;23.496;2024-03-08T00:14:27;100407.84;;;0.95;66.97
73594;BME280;76988;53.404;23.496;2024-03-08T00:16:53;100390.66;;;0.89;66.44
73594;BME280;76988;53.404;23.496;2024-03-08T00:19:20;100403.59;;;0.81;66.49
73594;BME280;76988;53.404;23.496;2024-03-08T00:21:46;100400.22;;;0.68;66.67
73594;BME280;76988;53.404;23.496;2024-03-08T00:24:12;100401.31;;;0.66;67.02
73594;BME280;76988;53.404;23.496;2024-03-08T00:26:38;100396.28;;;0.63;66.94
73594;BME280;76988;53.404;23.496;2024-03-08T00:29:05;100402.41;;;0.63;67.16
73594;BME280;76988;53.404;23.496;2024-03-08T00:31:33;100400.22;;;0.68;67.30
73594;BME280;76988;53.404;23.496;2024-03-08T00:34:00;100396.28;;;0.74;68.63
73594;BME280;76988;53.404;23.496;2024-03-08T00:36:26;100405.16;;;0.84;69.57
73594;BME280;76988;53.404;23.496;2024-03-08T00:38:53;100395.34;;;0.97;69.27
73594;BME280;76988;53.404;23.496;2024-03-08T00:41:19;100383.34;;;0.93;68.90
73594;BME280;76988;53.404;23.496;2024-03-08T00:43:45;100393.44;;;0.99;68.40
73594;BME280;76988;53.404;23.496;2024-03-08T00:46:13;100390.06;;;0.97;68.30
73594;BME280;76988;53.404;23.496;2024-03-08T00:48:41;100385.88;;;0.94;68.87
73594;BME280;76988;53.404;23.496;2024-03-08T00:51:09;100382.03;;;0.99;68.57
73594;BME280;76988;53.404;23.496;2024-03-08T00:53:35;100384.94;;;0.96;68.04
73594;BME280;76988;53.404;23.496;2024-03-08T00:56:02;100379.03;;;0.92;68.16
73594;BME280;76988;53.404;23.496;2024-03-08T00:58:28;100384.44;;;0.90;69.06
73594;BME280;76988;53.404;23.496;2024-03-08T01:00:55;100383.25;;;0.94;69.43
73594;BME280;76988;53.404;23.496;2024-03-08T01:03:22;100378.56;;;0.98;69.42
73594;BME280;76988;53.404;23.496;2024-03-08T01:05:49;100383.50;;;0.91;69.49
73594;BME280;76988;53.404;23.496;2024-03-08T01:08:15;100378.41;;;0.88;70.23
73594;BME280;76988;53.404;23.496;2024-03-08T01:10:41;100380.47;;;0.96;69.65
73594;BME280;76988;53.404;23.496;2024-03-08T01:13:08;100375.44;;;0.71;70.75
73594;BME280;76988;53.404;23.496;2024-03-08T01:15:35;100365.81;;;0.70;70.52
73594;BME280;76988;53.404;23.496;2024-03-08T01:18:02;100371.78;;;0.61;72.21
73594;BME280;76988;53.404;23.496;2024-03-08T01:20:28;100377.56;;;0.66;72.62
73594;BME280;76988;53.404;23.496;2024-03-08T01:22:54;100371.00;;;0.71;72.19
73594;BME280;76988;53.404;23.496;2024-03-08T01:25:21;100361.25;;;0.72;71.53
73594;BME280;76988;53.404;23.496;2024-03-08T01:27:47;100363.09;;;0.71;71.42
73594;BME280;76988;53.404;23.496;2024-03-08T01:30:13;100364.13;;;0.80;71.59
73594;BME280;76988;53.404;23.496;2024-03-08T01:32:43;100358.66;;;0.83;70.73
73594;BME280;76988;53.404;23.496;2024-03-08T01:35:09;100368.34;;;0.71;71.15
73594;BME280;76988;53.404;23.496;2024-03-08T01:37:36;100359.84;;;0.79;70.87
73594;BME280;76988;53.404;23.496;2024-03-08T01:40:03;100361.28;;;1.05;69.30
73594;BME280;76988;53.404;23.496;2024-03-08T01:42:30;100363.56;;;1.10;67.21
73594;BME280;76988;53.404;23.496;2024-03-08T01:44:56;100352.28;;;0.97;67.79
73594;BME280;76988;53.404;23.496;2024-03-08T01:47:23;100351.81;;;1.03;67.19
73594;BME280;76988;53.404;23.496;2024-03-08T01:49:49;100359.59;;;0.93;66.80
73594;BME280;76988;53.404;23.496;2024-03-08T01:52:18;100354.78;;;0.76;67.24
73594;BME280;76988;53.404;23.496;2024-03-08T01:54:46;100361.63;;;0.67;65.87
73594;BME280;76988;53.404;23.496;2024-03-08T01:57:13;100355.00;;;0.51;66.02
73594;BME280;76988;53.404;23.496;2024-03-08T01:59:39;100350.78;;;0.48;65.84
73594;BME280;76988;53.404;23.496;2024-03-08T02:02:08;100353.81;;;0.43;66.36
73594;BME280;76988;53.404;23.496;2024-03-08T02:04:36;100351.72;;;0.36;66.50
73594;BME280;76988;53.404;23.496;2024-03-08T02:07:05;100345.63;;;0.35;67.51
73594;BME280;76988;53.404;23.496;2024-03-08T02:09:31;100351.16;;;0.43;66.78
73594;BME280;76988;53.404;23.496;2024-03-08T02:11:58;100346.59;;;0.34;66.95
73594;BME280;76988;53.404;23.496;2024-03-08T02:14:29;100346.31;;;0.26;66.58
73594;BME280;76988;53.404;23.496;2024-03-08T02:17:03;100349.47;;;0.31;66.98
73594;BME280;76988;53.404;23.496;2024-03-08T02:19:30;100343.59;;;0.28;66.68
73594;BME280;76988;53.404;23.496;2024-03-08T02:21:57;100342.84;;;0.26;67.00
73594;BME280;76988;53.404;23.496;2024-03-08T02:24:24;100331.44;;;0.14;66.52
73594;BME280;76988;53.404;23.496;2024-03-08T02:26:50;100339.75;;;-0.03;66.86
73594;BME280;76988;53.404;23.496;2024-03-08T02:29:17;100332.75;;;-0.15;67.39
73594;BME280;76988;53.404;23.496;2024-03-08T02:31:43;100335.91;;;-0.10;67.51
73594;BME280;76988;53.404;23.496;2024-03-08T02:34:09;100332.56;;;-0.12;67.97
73594;BME280;76988;53.404;23.496;2024-03-08T02:36:36;100333.28;;;-0.10;68.03
73594;BME280;76988;53.404;23.496;2024-03-08T02:39:02;100329.19;;;-0.14;68.33
73594;BME280;76988;53.404;23.496;2024-03-08T02:41:29;100333.28;;;-0.10;67.96
73594;BME280;76988;53.404;23.496;2024-03-08T02:43:55;100330.97;;;-0.15;67.83
73594;BME280;76988;53.404;23.496;2024-03-08T02:46:21;100329.66;;;-0.20;68.79
73594;BME280;76988;53.404;23.496;2024-03-08T02:48:48;100326.31;;;-0.11;67.94
73594;BME280;76988;53.404;23.496;2024-03-08T02:51:14;100331.25;;;-0.07;67.09
73594;BME280;76988;53.404;23.496;2024-03-08T02:53:41;100329.47;;;-0.06;67.53
73594;BME280;76988;53.404;23.496;2024-03-08T02:56:09;100324.09;;;-0.05;67.97
73594;BME280;76988;53.404;23.496;2024-03-08T02:58:38;100321.81;;;0.02;66.89
73594;BME280;76988;53.404;23.496;2024-03-08T03:01:05;100317.47;;;-0.10;68.11
73594;BME280;76988;53.404;23.496;2024-03-08T03:03:31;100322.63;;;-0.09;66.94
73594;BME280;76988;53.404;23.496;2024-03-08T03:05:58;100313.63;;;-0.17;67.39
73594;BME280;76988;53.404;23.496;2024-03-08T03:08:24;100314.84;;;-0.10;67.44
73594;BME280;76988;53.404;23.496;2024-03-08T03:10:51;100316.53;;;-0.09;66.59
73594;BME280;76988;53.404;23.496;2024-03-08T03:13:17;100316.25;;;-0.17;66.91
73594;BME280;76988;53.404;23.496;2024-03-08T03:15:46;100319.66;;;-0.28;67.59
73594;BME280;76988;53.404;23.496;2024-03-08T03:18:12;100317.16;;;-0.29;66.87
73594;BME280;76988;53.404;23.496;2024-03-08T03:20:39;100313.19;;;-0.35;67.29
73594;BME280;76988;53.404;23.496;2024-03-08T03:23:09;100321.06;;;-0.35;67.16
73594;BME280;76988;53.404;23.496;2024-03-08T03:25:36;100310.78;;;-0.38;66.85
73594;BME280;76988;53.404;23.496;2024-03-08T03:28:04;100312.69;;;-0.40;68.02
73594;BME280;76988;53.404;23.496;2024-03-08T03:30:31;100307.84;;;-0.22;68.31
73594;BME280;76988;53.404;23.496;2024-03-08T03:33:02;100316.25;;;-0.17;67.41
73594;BME280;76988;53.404;23.496;2024-03-08T03:35:33;100312.66;;;-0.16;67.80
73594;BME280;76988;53.404;23.496;2024-03-08T03:38:00;100310.97;;;-0.17;67.50
73594;BME280;76988;53.404;23.496;2024-03-08T03:40:40;100309.63;;;-0.23;67.23
73594;BME280;76988;53.404;23.496;2024-03-08T03:43:07;100305.44;;;-0.25;67.62
73594;BME280;76988;53.404;23.496;2024-03-08T03:45:36;100306.63;;;-0.29;67.73
73594;BME280;76988;53.404;23.496;2024-03-08T03:48:03;100297.31;;;-0.22;67.77
73594;BME280;76988;53.404;23.496;2024-03-08T03:50:30;100296.34;;;-0.21;67.82
73594;BME280;76988;53.404;23.496;2024-03-08T03:52:56;100296.97;;;-0.18;67.63
73594;BME280;76988;53.404;23.496;2024-03-08T03:55:23;100295.63;;;-0.23;67.48
73594;BME280;76988;53.404;23.496;2024-03-08T03:57:49;100289.97;;;-0.30;67.26
73594;BME280;76988;53.404;23.496;2024-03-08T04:00:15;100293.78;;;-0.34;67.30
73594;BME280;76988;53.404;23.496;2024-03-08T04:06:10;100288.25;;;-0.42;67.56
73594;BME280;76988;53.404;23.496;2024-03-08T04:08:37;100283.09;;;-0.43;66.76
73594;BME280;76988;53.404;23.496;2024-03-08T04:11:03;100286.56;;;-0.43;67.80
73594;BME280;76988;53.404;23.496;2024-03-08T04:13:29;100277.00;;;-0.44;67.09
73594;BME280;76988;53.404;23.496;2024-03-08T04:15:56;100275.41;;;-0.47;67.07
73594;BME280;76988;53.404;23.496;2024-03-08T04:18:22;100271.66;;;-0.55;66.63
73594;BME280;76988;53.404;23.496;2024-03-08T04:20:49;100274.75;;;-0.61;66.81
73594;BME280;76988;53.404;23.496;2024-03-08T04:23:16;100279.13;;;-0.73;67.63
73594;BME280;76988;53.404;23.496;2024-03-08T04:25:43;100268.19;;;-0.79;67.66
73594;BME280;76988;53.404;23.496;2024-03-08T04:28:09;100272.19;;;-0.74;67.16
73594;BME280;76988;53.404;23.496;2024-03-08T04:30:39;100272.69;;;-0.69;66.80
73594;BME280;76988;53.404;23.496;2024-03-08T04:33:05;100274.16;;;-0.65;67.14
73594;BME280;76988;53.404;23.496;2024-03-08T04:35:35;100270.34;;;-0.61;67.54
73594;BME280;76988;53.404;23.496;2024-03-08T04:38:01;100267.72;;;-0.61;67.46
73594;BME280;76988;53.404;23.496;2024-03-08T04:40:28;100262.78;;;-0.65;67.36
73594;BME280;76988;53.404;23.496;2024-03-08T04:42:54;100271.91;;;-0.58;68.51
73594;BME280;76988;53.404;23.496;2024-03-08T04:45:20;100274.91;;;-0.52;67.79
73594;BME280;76988;53.404;23.496;2024-03-08T04:47:47;100264.28;;;-0.50;67.75
73594;BME280;76988;53.404;23.496;2024-03-08T04:50:14;100268.94;;;-0.54;67.46
73594;BME280;76988;53.404;23.496;2024-03-08T04:52:40;100262.38;;;-0.48;67.70
73594;BME280;76988;53.404;23.496;2024-03-08T04:55:06;100265.50;;;-0.43;68.03
73594;BME280;76988;53.404;23.496;2024-03-08T04:57:33;100268.31;;;-0.33;68.36
73594;BME280;76988;53.404;23.496;2024-03-08T04:59:59;100269.00;;;-0.31;68.33
73594;BME280;76988;53.404;23.496;2024-03-08T05:02:25;100264.13;;;-0.36;67.58
73594;BME280;76988;53.404;23.496;2024-03-08T05:04:52;100265.41;;;-0.41;67.31
73594;BME280;76988;53.404;23.496;2024-03-08T05:07:18;100263.91;;;-0.57;67.76
73594;BME280;76988;53.404;23.496;2024-03-08T05:09:45;100260.53;;;-0.59;67.03
73594;BME280;76988;53.404;23.496;2024-03-08T05:12:18;100268.66;;;-0.62;67.22
73594;BME280;76988;53.404;23.496;2024-03-08T05:14:47;100268.44;;;-0.59;67.12
73594;BME280;76988;53.404;23.496;2024-03-08T05:17:16;100269.88;;;-0.55;67.04
73594;BME280;76988;53.404;23.496;2024-03-08T05:19:43;100260.09;;;-0.53;67.59
73594;BME280;76988;53.404;23.496;2024-03-08T05:22:09;100267.28;;;-0.43;67.39
73594;BME280;76988;53.404;23.496;2024-03-08T05:24:36;100266.63;;;-0.34;67.38
73594;BME280;76988;53.404;23.496;2024-03-08T05:27:02;100265.00;;;-0.24;68.19
73594;BME280;76988;53.404;23.496;2024-03-08T05:29:29;100272.22;;;-0.04;69.02
73594;BME280;76988;53.404;23.496;2024-03-08T05:31:55;100260.53;;;0.11;69.13
73594;BME280;76988;53.404;23.496;2024-03-08T05:34:22;100260.88;;;0.18;68.04
73594;BME280;76988;53.404;23.496;2024-03-08T05:36:49;100259.59;;;0.23;68.19
73594;BME280;76988;53.404;23.496;2024-03-08T05:39:17;100256.94;;;0.23;68.20
73594;BME280;76988;53.404;23.496;2024-03-08T05:41:43;100254.66;;;0.30;68.59
73594;BME280;76988;53.404;23.496;2024-03-08T05:44:11;100254.81;;;0.39;68.40
73594;BME280;76988;53.404;23.496;2024-03-08T05:46:37;100249.16;;;0.44;68.08
73594;BME280;76988;53.404;23.496;2024-03-08T05:49:04;100258.50;;;0.48;68.62
73594;BME280;76988;53.404;23.496;2024-03-08T05:51:36;100265.59;;;0.59;67.92
73594;BME280;76988;53.404;23.496;2024-03-08T05:54:05;100257.31;;;0.63;68.19
73594;BME280;76988;53.404;23.496;2024-03-08T05:56:32;100256.13;;;0.67;68.15
73594;BME280;76988;53.404;23.496;2024-03-08T05:58:58;100259.47;;;0.69;67.61
73594;BME280;76988;53.404;23.496;2024-03-08T06:01:25;100265.47;;;0.71;67.87
73594;BME280;76988;53.404;23.496;2024-03-08T06:03:55;100263.66;;;0.72;69.07
73594;BME280;76988;53.404;23.496;2024-03-08T06:06:23;100265.09;;;0.76;68.74
73594;BME280;76988;53.404;23.496;2024-03-08T06:08:50;100263.28;;;0.76;69.26
73594;BME280;76988;53.404;23.496;2024-03-08T06:11:18;100259.44;;;0.91;69.24
73594;BME280;76988;53.404;23.496;2024-03-08T06:13:45;100269.63;;;1.07;69.39
73594;BME280;76988;53.404;23.496;2024-03-08T06:16:11;100266.00;;;1.19;69.03
73594;BME280;76988;53.404;23.496;2024-03-08T06:18:38;100270.72;;;1.36;68.38
73594;BME280;76988;53.404;23.496;2024-03-08T06:21:08;100270.47;;;1.51;68.48
73594;BME280;76988;53.404;23.496;2024-03-08T06:23:35;100270.41;;;1.62;68.81
73594;BME280;76988;53.404;23.496;2024-03-08T06:26:07;100274.47;;;1.66;68.09
73594;BME280;76988;53.404;23.496;2024-03-08T06:28:34;100265.53;;;1.78;68.53
73594;BME280;76988;53.404;23.496;2024-03-08T06:31:02;100270.00;;;1.98;68.07
73594;BME280;76988;53.404;23.496;2024-03-08T06:33:29;100263.31;;;2.24;67.76
73594;BME280;76988;53.404;23.496;2024-03-08T06:35:59;100258.81;;;2.15;67.09
73594;BME280;76988;53.404;23.496;2024-03-08T06:38:25;100260.50;;;2.16;67.52
73594;BME280;76988;53.404;23.496;2024-03-08T06:40:52;100262.56;;;2.33;66.14
73594;BME280;76988;53.404;23.496;2024-03-08T06:43:20;100264.31;;;2.54;65.04
73594;BME280;76988;53.404;23.496;2024-03-08T06:45:47;100264.91;;;2.67;65.78
73594;BME280;76988;53.404;23.496;2024-03-08T06:48:17;100266.47;;;2.69;65.71
73594;BME280;76988;53.404;23.496;2024-03-08T06:50:44;100260.97;;;2.31;65.02
73594;BME280;76988;53.404;23.496;2024-03-08T06:53:12;100264.63;;;2.60;65.37
73594;BME280;76988;53.404;23.496;2024-03-08T06:55:38;100266.66;;;2.87;64.84
73594;BME280;76988;53.404;23.496;2024-03-08T06:58:04;100255.38;;;2.85;64.56
73594;BME280;76988;53.404;23.496;2024-03-08T07:00:30;100257.16;;;3.24;65.37
73594;BME280;76988;53.404;23.496;2024-03-08T07:02:57;100260.78;;;3.43;64.51
73594;BME280;76988;53.404;23.496;2024-03-08T07:05:27;100255.09;;;3.38;64.69
73594;BME280;76988;53.404;23.496;2024-03-08T07:07:53;100260.94;;;3.51;64.86
73594;BME280;76988;53.404;23.496;2024-03-08T07:10:23;100260.13;;;3.60;63.97
73594;BME280;76988;53.404;23.496;2024-03-08T07:12:53;100254.81;;;3.60;64.23
73594;BME280;76988;53.404;23.496;2024-03-08T07:15:19;100258.19;;;3.62;64.38
73594;BME280;76988;53.404;23.496;2024-03-08T07:17:46;100255.94;;;3.86;64.20
73594;BME280;76988;53.404;23.496;2024-03-08T07:20:15;100257.56;;;4.06;63.19
73594;BME280;76988;53.404;23.496;2024-03-08T07:22:45;100252.53;;;4.13;62.17
73594;BME280;76988;53.404;23.496;2024-03-08T07:25:14;100242.91;;;4.12;62.26
73594;BME280;76988;53.404;23.496;2024-03-08T07:27:51;100250.88;;;4.12;59.95
73594;BME280;76988;53.404;23.496;2024-03-08T07:30:22;100249.25;;;4.38;60.55
73594;BME280;76988;53.404;23.496;2024-03-08T07:33:07;100248.91;;;4.04;60.52
73594;BME280;76988;53.404;23.496;2024-03-08T07:35:33;100250.69;;;4.23;60.06
73594;BME280;76988;53.404;23.496;2024-03-08T07:38:04;100242.44;;;4.26;59.80
73594;BME280;76988;53.404;23.496;2024-03-08T07:40:33;100240.66;;;4.63;59.33
73594;BME280;76988;53.404;23.496;2024-03-08T07:43:01;100245.50;;;4.78;58.86
73594;BME280;76988;53.404;23.496;2024-03-08T07:45:28;100245.00;;;4.55;58.63
73594;BME280;76988;53.404;23.496;2024-03-08T07:47:54;100234.69;;;4.79;59.76
73594;BME280;76988;53.404;23.496;2024-03-08T07:50:22;100234.59;;;4.98;58.95
73594;BME280;76988;53.404;23.496;2024-03-08T07:52:49;100241.56;;;5.27;59.61
73594;BME280;76988;53.404;23.496;2024-03-08T07:55:15;100239.97;;;5.34;57.66
73594;BME280;76988;53.404;23.496;2024-03-08T07:57:41;100235.56;;;5.78;59.06
73594;BME280;76988;53.404;23.496;2024-03-08T08:00:09;100234.94;;;5.31;57.28
73594;BME280;76988;53.404;23.496;2024-03-08T08:02:37;100237.47;;;5.50;56.65
73594;BME280;76988;53.404;23.496;2024-03-08T08:05:03;100238.22;;;5.95;56.69
73594;BME280;76988;53.404;23.496;2024-03-08T08:07:30;100234.94;;;5.66;55.29
73594;BME280;76988;53.404;23.496;2024-03-08T08:09:56;100234.22;;;6.17;55.57
73594;BME280;76988;53.404;23.496;2024-03-08T08:12:23;100235.25;;;6.50;54.86
73594;BME280;76988;53.404;23.496;2024-03-08T08:14:49;100229.63;;;6.53;53.85
73594;BME280;76988;53.404;23.496;2024-03-08T08:17:16;100225.34;;;6.60;53.06
73594;BME280;76988;53.404;23.496;2024-03-08T08:19:42;100234.16;;;7.02;53.65
73594;BME280;76988;53.404;23.496;2024-03-08T08:22:09;100233.78;;;6.89;51.29
73594;BME280;76988;53.404;23.496;2024-03-08T08:24:35;100231.19;;;7.14;52.26
73594;BME280;76988;53.404;23.496;2024-03-08T08:27:04;100227.19;;;7.09;50.93
73594;BME280;76988;53.404;23.496;2024-03-08T08:29:30;100224.72;;;7.08;50.24
73594;BME280;76988;53.404;23.496;2024-03-08T08:31:59;100224.53;;;7.09;47.65
73594;BME280;76988;53.404;23.496;2024-03-08T08:34:25;100224.47;;;7.51;47.83
73594;BME280;76988;53.404;23.496;2024-03-08T08:36:53;100227.47;;;7.40;47.91
73594;BME280;76988;53.404;23.496;2024-03-08T08:39:19;100223.47;;;7.69;47.18
73594;BME280;76988;53.404;23.496;2024-03-08T08:41:45;100226.94;;;7.53;46.21
73594;BME280;76988;53.404;23.496;2024-03-08T08:44:11;100232.16;;;7.71;46.63
73594;BME280;76988;53.404;23.496;2024-03-08T08:46:39;100218.44;;;7.49;46.27
73594;BME280;76988;53.404;23.496;2024-03-08T08:49:05;100229.47;;;7.79;45.39
73594;BME280;76988;53.404;23.496;2024-03-08T08:51:32;100225.97;;;7.70;44.12
73594;BME280;76988;53.404;23.496;2024-03-08T08:53:59;100234.31;;;7.75;43.69
73594;BME280;76988;53.404;23.496;2024-03-08T08:56:26;100224.47;;;7.60;43.68
73594;BME280;76988;53.404;23.496;2024-03-08T08:58:52;100226.31;;;7.91;42.94
73594;BME280;76988;53.404;23.496;2024-03-08T09:01:21;100227.97;;;7.52;42.26
73594;BME280;76988;53.404;23.496;2024-03-08T09:03:48;100222.63;;;7.92;41.87
73594;BME280;76988;53.404;23.496;2024-03-08T09:06:16;100217.81;;;7.88;41.51
73594;BME280;76988;53.404;23.496;2024-03-08T09:08:42;100222.31;;;8.12;41.55
73594;BME280;76988;53.404;23.496;2024-03-08T09:11:10;100221.13;;;8.14;41.57
73594;BME280;76988;53.404;23.496;2024-03-08T09:13:36;100225.28;;;8.17;40.86
73594;BME280;76988;53.404;23.496;2024-03-08T09:16:03;100222.31;;;8.12;40.16
73594;BME280;76988;53.404;23.496;2024-03-08T09:18:32;100212.41;;;8.20;40.58
73594;BME280;76988;53.404;23.496;2024-03-08T09:20:59;100222.47;;;8.10;41.22
73594;BME280;76988;53.404;23.496;2024-03-08T09:23:25;100220.63;;;8.35;40.56
73594;BME280;76988;53.404;23.496;2024-03-08T09:25:56;100207.91;;;8.21;40.27
73594;BME280;76988;53.404;23.496;2024-03-08T09:28:25;100210.44;;;8.14;40.22
73594;BME280;76988;53.404;23.496;2024-03-08T09:30:53;100219.75;;;8.51;39.94
73594;BME280;76988;53.404;23.496;2024-03-08T09:33:20;100220.75;;;8.49;39.16
73594;BME280;76988;53.404;23.496;2024-03-08T09:35:48;100212.75;;;8.88;39.23
73594;BME280;76988;53.404;23.496;2024-03-08T09:38:14;100211.22;;;8.55;39.28
73594;BME280;76988;53.404;23.496;2024-03-08T09:40:41;100207.19;;;8.59;38.89
73594;BME280;76988;53.404;23.496;2024-03-08T09:43:08;100220.38;;;8.61;39.08
73594;BME280;76988;53.404;23.496;2024-03-08T09:45:36;100210.81;;;8.74;38.51
73594;BME280;76988;53.404;23.496;2024-03-08T09:48:06;100211.06;;;8.40;39.11
73594;BME280;76988;53.404;23.496;2024-03-08T09:50:39;100209.50;;;9.32;38.54
73594;BME280;76988;53.404;23.496;2024-03-08T09:53:07;100209.34;;;9.33;36.55
73594;BME280;76988;53.404;23.496;2024-03-08T09:55:37;100210.81;;;9.36;36.32
73594;BME280;76988;53.404;23.496;2024-03-08T09:58:05;100211.03;;;9.04;37.02
73594;BME280;76988;53.404;23.496;2024-03-08T10:00:44;100207.25;;;8.90;37.10
73594;BME280;76988;53.404;23.496;2024-03-08T10:03:10;100199.88;;;9.23;37.72
73594;BME280;76988;53.404;23.496;2024-03-08T10:05:37;100198.09;;;9.38;37.73
73594;BME280;76988;53.404;23.496;2024-03-08T10:08:03;100198.31;;;9.06;38.77
73594;BME280;76988;53.404;23.496;2024-03-08T10:10:31;100195.16;;;9.02;38.29
73594;BME280;76988;53.404;23.496;2024-03-08T10:12:57;100191.94;;;9.07;38.12
73594;BME280;76988;53.404;23.496;2024-03-08T10:15:27;100189.72;;;9.41;36.40
73594;BME280;76988;53.404;23.496;2024-03-08T10:17:58;100188.88;;;9.18;36.65
73594;BME280;76988;53.404;23.496;2024-03-08T10:20:25;100188.34;;;9.45;36.52
73594;BME280;76988;53.404;23.496;2024-03-08T10:22:52;100188.28;;;9.53;36.80
73594;BME280;76988;53.404;23.496;2024-03-08T10:25:20;100183.00;;;9.45;36.83
73594;BME280;76988;53.404;23.496;2024-03-08T10:27:45;100187.88;;;9.19;36.52
73594;BME280;76988;53.404;23.496;2024-03-08T10:30:14;100189.88;;;9.39;34.92
73594;BME280;76988;53.404;23.496;2024-03-08T10:32:42;100193.97;;;9.35;34.61
73594;BME280;76988;53.404;23.496;2024-03-08T10:35:08;100192.66;;;9.54;34.40
73594;BME280;76988;53.404;23.496;2024-03-08T10:40:06;100191.81;;;9.54;36.06
73594;BME280;76988;53.404;23.496;2024-03-08T10:42:54;100182.34;;;10.03;33.53
73594;BME280;76988;53.404;23.496;2024-03-08T10:45:38;100186.16;;;10.09;33.80
73594;BME280;76988;53.404;23.496;2024-03-08T10:48:28;100187.75;;;9.80;33.27
73594;BME280;76988;53.404;23.496;2024-03-08T10:51:02;100188.09;;;9.77;33.45
73594;BME280;76988;53.404;23.496;2024-03-08T10:53:29;100174.66;;;9.85;33.35
73594;BME280;76988;53.404;23.496;2024-03-08T10:55:56;100166.63;;;10.00;33.52
73594;BME280;76988;53.404;23.496;2024-03-08T10:58:25;100168.66;;;10.21;33.75
73594;BME280;76988;53.404;23.496;2024-03-08T11:00:54;100162.28;;;9.84;33.69
73594;BME280;76988;53.404;23.496;2024-03-08T11:06:07;100157.28;;;10.19;31.90
73594;BME280;76988;53.404;23.496;2024-03-08T11:08:38;100145.38;;;9.84;33.28
73594;BME280;76988;53.404;23.496;2024-03-08T11:11:04;100152.84;;;10.26;32.98
73594;BME280;76988;53.404;23.496;2024-03-08T11:13:39;100156.63;;;10.17;33.51
73594;BME280;76988;53.404;23.496;2024-03-08T11:16:09;100150.75;;;10.51;33.42
73594;BME280;76988;53.404;23.496;2024-03-08T11:18:37;100148.75;;;10.15;33.55
73594;BME280;76988;53.404;23.496;2024-03-08T11:21:09;100134.22;;;10.83;32.32
73594;BME280;76988;53.404;23.496;2024-03-08T11:23:38;100138.78;;;11.04;32.73
73594;BME280;76988;53.404;23.496;2024-03-08T11:26:18;100133.69;;;10.73;33.11
73594;BME280;76988;53.404;23.496;2024-03-08T11:28:45;100123.69;;;10.81;33.18
73594;BME280;76988;53.404;23.496;2024-03-08T11:33:40;100127.53;;;10.28;34.87
73594;BME280;76988;53.404;23.496;2024-03-08T11:36:13;100126.69;;;10.28;34.66
73594;BME280;76988;53.404;23.496;2024-03-08T11:38:48;100122.91;;;10.88;34.40
73594;BME280;76988;53.404;23.496;2024-03-08T11:41:20;100120.03;;;10.24;35.13
73594;BME280;76988;53.404;23.496;2024-03-08T11:43:48;100121.16;;;10.44;34.37
73594;BME280;76988;53.404;23.496;2024-03-08T11:46:15;100119.75;;;10.48;35.37
73594;BME280;76988;53.404;23.496;2024-03-08T11:48:48;100112.34;;;11.01;34.58
73594;BME280;76988;53.404;23.496;2024-03-08T11:51:15;100106.22;;;11.49;34.13
73594;BME280;76988;53.404;23.496;2024-03-08T11:53:41;100101.69;;;11.28;32.81
73594;BME280;76988;53.404;23.496;2024-03-08T11:56:12;100103.63;;;11.13;32.88
73594;BME280;76988;53.404;23.496;2024-03-08T11:58:39;100101.16;;;10.97;33.22
73594;BME280;76988;53.404;23.496;2024-03-08T12:01:06;100105.53;;;10.62;33.05
73594;BME280;76988;53.404;23.496;2024-03-08T12:03:33;100108.75;;;10.58;32.67
73594;BME280;76988;53.404;23.496;2024-03-08T12:06:04;100093.75;;;10.63;32.17
73594;BME280;76988;53.404;23.496;2024-03-08T12:08:31;100093.44;;;11.09;31.50
73594;BME280;76988;53.404;23.496;2024-03-08T12:10:58;100100.59;;;11.02;31.47
73594;BME280;76988;53.404;23.496;2024-03-08T12:13:28;100106.03;;;10.72;33.21
73594;BME280;76988;53.404;23.496;2024-03-08T12:15:58;100094.06;;;10.90;32.54
73594;BME280;76988;53.404;23.496;2024-03-08T12:18:28;100089.47;;;10.33;32.69
73594;BME280;76988;53.404;23.496;2024-03-08T12:21:07;100086.69;;;10.41;32.09
73594;BME280;76988;53.404;23.496;2024-03-08T12:23:34;100087.66;;;10.69;31.57
73594;BME280;76988;53.404;23.496;2024-03-08T12:26:15;100088.06;;;10.88;31.05
73594;BME280;76988;53.404;23.496;2024-03-08T12:28:43;100083.53;;;10.52;31.18
73594;BME280;76988;53.404;23.496;2024-03-08T12:31:16;100083.75;;;10.72;31.22
73594;BME280;76988;53.404;23.496;2024-03-08T12:36:17;100075.34;;;10.24;33.06
73594;BME280;76988;53.404;23.496;2024-03-08T12:38:44;100079.72;;;10.61;30.97
73594;BME280;76988;53.404;23.496;2024-03-08T12:41:15;100072.25;;;10.57;30.91
73594;BME280;76988;53.404;23.496;2024-03-08T12:43:41;100078.31;;;11.22;30.83
73594;BME280;76988;53.404;23.496;2024-03-08T12:46:07;100082.81;;;10.79;32.39
73594;BME280;76988;53.404;23.496;2024-03-08T12:48:35;100084.00;;;10.41;31.95
73594;BME280;76988;53.404;23.496;2024-03-08T12:51:07;100085.19;;;10.53;31.34
73594;BME280;76988;53.404;23.496;2024-03-08T12:53:33;100081.78;;;10.80;31.77
73594;BME280;76988;53.404;23.496;2024-03-08T12:56:00;100087.00;;;10.67;32.08
73594;BME280;76988;53.404;23.496;2024-03-08T12:58:26;100084.50;;;11.02;32.34
73594;BME280;76988;53.404;23.496;2024-03-08T13:00:54;100082.44;;;11.04;32.52
73594;BME280;76988;53.404;23.496;2024-03-08T13:03:20;100079.84;;;10.89;32.48